Latest Weather Observations for Cobar Airport

IDN60801

Issued at 9:02 am EDT Tuesday 28 March 2017 (issued every 30 minutes, with the page automatically refreshed every 10 minutes)

About weather observations | Map of weather stations | Latest weather observations for NSW | Other Formats
Station Details ID: 048237 Name: COBAR AIRPORT AWS Lat: -31.54 Lon: 145.80 Height: 218.0 m
Data from the previous 72 hours. | See also: Recent months at Cobar Airport
Date/Time
EDT
Temp
°C
App
Temp
°C
Dew
Point
°C
Rel
Hum
%
Delta-T
°C
Wind Press
QNH
hPa
Press
MSL
hPa
Rain since
9am
mm
Dir  Spd
km/h
Gust
km/h
Spd
kts
Gust
kts
28/09:00am 20.5 16.9 8.2 45 6.5 SSE 17 22 9 12 1014.2 1013.2 0.0
28/08:30am 19.8 16.8 7.9 46 6.2 SSE 13 19 7 10 1013.6 1012.6 0.0
28/08:00am 19.4 16.8 7.8 47 6.0 SSE 11 15 6 8 1013.3 1012.3 0.0
28/07:30am 19.3 15.8 7.4 46 6.1 SSE 15 20 8 11 1013.2 1012.2 0.0
28/07:00am 19.7 16.2 7.1 44 6.5 S 15 24 8 13 1012.9 1011.9 0.0
28/06:30am 19.9 16.8 7.3 44 6.5 S 13 19 7 10 1012.7 1011.7 0.0
28/06:00am 20.3 16.5 7.7 44 6.6 S 17 22 9 12 1012.5 1011.5 0.0
28/05:30am 20.8 17.2 8.4 45 6.6 S 17 22 9 12 1012.1 1011.1 0.0
28/05:00am 21.5 17.5 8.1 42 7.1 S 19 26 10 14 1012.3 1011.3 0.0
28/04:30am 22.0 17.9 7.8 40 7.5 S 19 24 10 13 1012.1 1011.1 0.0
28/04:00am 22.4 18.2 7.4 38 7.9 SSW 19 30 10 16 1012.4 1011.4 0.0
28/03:30am 22.8 18.4 7.4 37 8.1 S 20 32 11 17 1012.5 1011.5 0.0
28/03:00am 23.4 18.3 7.5 36 8.4 SSW 24 35 13 19 1012.7 1011.7 0.0
28/02:30am 25.0 21.5 10.8 41 8.0 S 20 26 11 14 1012.7 1011.7 0.0
28/02:00am 25.6 22.1 11.0 40 8.3 S 20 30 11 16 1012.7 1011.7 0.0
28/01:30am 26.8 23.7 12.1 40 8.6 S 20 30 11 16 1012.7 1011.7 0.0
28/01:00am 27.2 24.3 12.4 40 8.7 S 19 26 10 14 1012.7 1011.7 0.0
28/12:30am 28.0 24.3 12.8 39 9.0 S 24 33 13 18 1012.7 1011.7 0.0
28/12:00am 28.7 25.1 13.0 38 9.3 SSE 24 39 13 21 1012.3 1011.3 0.0
 
Date/Time
EDT
Temp
°C
App
Temp
°C
Dew
Point
°C
Rel
Hum
%
Delta-T
°C
Wind Press
QNH
hPa
Press
MSL
hPa
Rain since
9am
mm
Dir  Spd
km/h
Gust
km/h
Spd
kts
Gust
kts
27/11:33pm 29.2 25.2 13.0 37 9.7 S 26 37 14 20 1012.0 1011.0 0.0
27/11:30pm 29.4 25.5 13.2 37 9.7 SSE 26 33 14 18 1012.0 1011.0 0.0
27/11:22pm 29.9 26.5 13.6 36 9.8 SSE 24 33 13 18 1012.0 1011.0 0.0
27/11:00pm 30.7 27.0 13.9 36 10.2 S 26 35 14 19 1011.7 1010.7 0.0
27/10:30pm 31.9 29.4 14.1 34 10.9 S 20 32 11 17 1011.6 1010.6 0.0
27/10:00pm 31.8 30.8 13.5 32 11.1 SE 11 15 6 8 1011.0 1010.0 0.0
27/09:30pm 32.5 33.7 13.7 32 11.5 CALM 0 0 0 0 1010.2 1009.1 0.0
27/09:00pm 33.5 31.6 13.0 29 12.5 S 15 20 8 11 1009.6 1008.6 0.0
27/08:30pm 33.4 32.2 12.9 28 12.4 SW 11 26 6 14 1009.3 1008.3 0.0
27/08:00pm 34.2 33.5 12.0 26 13.3 NNW 7 9 4 5 1008.2 1007.2 0.0
27/07:30pm 35.1 34.0 12.1 25 13.8 NW 9 11 5 6 1008.1 1007.1 0.0
27/07:00pm 36.8 35.8 12.3 23 14.9 W 9 15 5 8 1007.9 1006.9 0.0
27/06:30pm 38.2 36.7 12.0 21 15.9 WNW 11 17 6 9 1008.0 1007.0 0.0
27/06:00pm 38.5 37.2 13.7 23 15.5 W 13 22 7 12 1008.0 1007.0 0.0
27/05:30pm 38.5 36.0 12.3 21 16.0 W 17 24 9 13 1008.2 1007.2 0.0
27/05:00pm 38.6 36.6 13.8 23 15.5 NW 17 28 9 15 1008.4 1007.4 0.0
27/04:30pm 39.0 39.5 14.1 23 15.6 NNW 4 11 2 6 1008.7 1007.7 0.0
27/04:00pm 38.4 38.3 14.9 25 14.9 NNW 9 20 5 11 1009.0 1008.0 0.0
27/03:30pm 37.7 36.6 14.3 25 14.7 NNW 13 30 7 16 1009.4 1008.4 0.0
27/03:00pm 37.5 36.8 15.3 26 14.1 NW 13 26 7 14 1009.9 1008.8 0.0
27/02:30pm 37.3 36.7 15.7 27 13.8 NNW 13 28 7 15 1010.4 1009.3 0.0
27/02:00pm 36.0 34.1 15.2 29 13.1 N 19 30 10 16 1011.0 1010.0 0.0
27/01:30pm 35.3 33.7 15.1 30 12.7 NNE 17 32 9 17 1011.7 1010.7 0.0
27/01:00pm 35.2 34.0 16.0 31 12.2 NNE 17 24 9 13 1012.3 1011.3 0.0
27/12:30pm 34.4 33.1 16.7 34 11.4 NNE 19 30 10 16 1012.8 1011.8 0.0
27/12:00pm 32.7 31.1 16.5 37 10.3 N 20 28 11 15 1013.1 1012.1 0.0
27/11:30am 32.2 30.9 16.9 40 9.8 NNE 19 24 10 13 1013.3 1012.3 0.0
27/11:00am 30.8 29.8 17.5 45 8.5 NNE 19 26 10 14 1013.6 1012.6 0.0
27/10:30am 29.7 28.2 17.8 48 7.6 NNE 22 32 12 17 1013.7 1012.7 0.0
27/10:00am 28.6 27.4 18.4 54 6.6 NNE 22 30 12 16 1013.8 1012.8 0.0
27/09:30am 27.4 26.3 18.7 59 5.6 NNE 22 28 12 15 1013.9 1012.9 0.0
27/09:00am 26.0 24.9 18.7 64 4.7 NE 22 32 12 17 1013.9 1012.9 0.0
27/08:30am 25.0 24.7 19.1 70 3.8 NE 19 28 10 15 1013.7 1012.7 0.0
27/08:00am 24.1 24.7 19.4 75 3.0 NE 15 24 8 13 1013.3 1012.3 0.0
27/07:30am 23.8 23.7 19.5 77 2.8 NE 19 28 10 15 1013.1 1012.1 0.0
27/07:00am 23.6 24.5 19.3 77 2.8 NE 13 19 7 10 1012.9 1011.9 0.0
27/06:30am 23.8 24.2 18.9 74 3.1 NE 15 19 8 10 1012.9 1011.9 0.0
27/06:00am 24.2 24.0 18.6 71 3.6 NE 17 20 9 11 1012.6 1011.6 0.0
27/05:30am 24.6 24.4 18.5 69 3.9 NE 17 20 9 11 1012.5 1011.5 0.0
27/05:00am 24.9 25.0 18.4 67 4.1 NE 15 20 8 11 1012.3 1011.3 0.0
27/04:30am 25.0 25.3 18.0 65 4.4 NE 13 19 7 10 1012.3 1011.3 0.0
27/04:00am 25.3 25.4 17.5 62 4.9 NE 13 17 7 9 1012.3 1011.3 0.0
27/03:30am 25.7 25.8 17.4 60 5.2 NE 13 19 7 10 1012.4 1011.4 0.0
27/03:00am 25.8 26.1 16.9 58 5.6 ENE 11 19 6 10 1012.6 1011.6 0.0
27/02:30am 25.8 26.4 16.9 58 5.6 ENE 9 13 5 7 1012.8 1011.8 0.0
27/02:00am 25.9 26.8 16.5 56 5.8 ENE 7 11 4 6 1013.1 1012.1 0.0
27/01:30am 26.6 26.7 16.5 54 6.3 ENE 11 13 6 7 1013.2 1012.2 0.0
27/01:00am 27.1 27.2 16.4 52 6.7 ENE 11 15 6 8 1013.5 1012.5 0.0
27/12:30am 27.3 27.4 16.6 52 6.7 ENE 11 13 6 7 1013.7 1012.7 0.0
27/12:00am 27.8 27.6 16.7 50 7.0 ENE 13 17 7 9 1013.8 1012.8 0.0
 
Date/Time
EDT
Temp
°C
App
Temp
°C
Dew
Point
°C
Rel
Hum
%
Delta-T
°C
Wind Press
QNH
hPa
Press
MSL
hPa
Rain since
9am
mm
Dir  Spd
km/h
Gust
km/h
Spd
kts
Gust
kts
26/11:30pm 28.2 28.4 16.8 50 7.2 ENE 11 17 6 9 1013.7 1012.7 0.0
26/11:00pm 27.8 28.2 16.4 50 7.1 ENE 9 13 5 7 1013.8 1012.8 0.0
26/10:30pm 28.4 28.3 16.0 47 7.7 ENE 11 13 6 7 1013.6 1012.6 0.0
26/10:00pm 29.0 29.0 15.2 43 8.5 ENE 9 11 5 6 1013.5 1012.5 0.0
26/09:30pm 29.8 28.8 14.7 39 9.3 E 13 17 7 9 1013.1 1012.1 0.0
26/09:00pm 28.9 29.0 15.4 44 8.3 ESE 9 9 5 5 1012.8 1011.8 0.0
26/08:30pm 28.7 29.9 15.9 45 8.0 E 4 7 2 4 1012.3 1011.3 0.0
26/08:00pm 30.0 30.3 14.5 38 9.5 E 6 7 3 4 1011.9 1010.9 0.0
26/07:30pm 32.4 32.5 14.5 33 11.1 ENE 7 9 4 5 1011.6 1010.6 0.0
26/07:00pm 33.8 33.1 14.3 31 12.1 E 11 15 6 8 1011.4 1010.4 0.0
26/06:30pm 34.8 33.6 14.1 28 12.8 E 13 20 7 11 1011.1 1010.1 0.0
26/06:00pm 35.0 33.4 13.8 28 13.1 E 15 20 8 11 1010.9 1009.9 0.0
26/05:30pm 35.4 33.9 14.1 28 13.2 SE 15 22 8 12 1010.8 1009.8 0.0
26/05:00pm 35.9 34.9 14.5 27 13.4 SW 13 19 7 10 1010.7 1009.7 0.0
26/04:30pm 36.0 35.8 14.6 27 13.4 S 9 13 5 7 1010.9 1009.9 0.0
26/04:00pm 34.7 33.7 13.5 28 13.0 S 11 17 6 9 1011.2 1010.2 0.0
26/03:30pm 35.3 34.3 13.5 27 13.4 S 11 24 6 13 1011.3 1010.3 0.0
26/03:00pm 36.0 34.6 14.6 27 13.4 SW 15 22 8 12 1011.7 1010.7 0.0
26/02:30pm 35.2 34.2 14.5 29 12.9 ESE 13 20 7 11 1011.9 1010.9 0.0
26/02:00pm 35.0 34.9 13.8 28 13.1 ENE 7 17 4 9 1012.3 1011.3 0.0
26/01:30pm 33.5 34.9 16.4 36 10.9 ESE 4 9 2 5 1013.0 1012.0 0.0
26/01:00pm 32.1 33.5 18.7 45 8.8 ESE 9 13 5 7 1013.4 1012.4 0.0
26/12:30pm 31.3 32.7 18.6 46 8.3 ESE 9 15 5 8 1013.9 1012.9 0.0
26/12:00pm 30.6 32.8 19.6 51 7.3 E 7 15 4 8 1014.2 1013.2 0.0
26/11:30am 29.5 31.0 19.8 56 6.4 ENE 11 17 6 9 1014.3 1013.3 0.0
26/11:00am 28.8 31.0 20.3 60 5.6 ENE 9 15 5 8 1014.4 1013.4 0.0
26/10:30am 27.4 29.6 20.5 66 4.6 ENE 9 13 5 7 1014.4 1013.4 0.0
26/10:00am 26.7 28.9 20.3 68 4.2 E 9 13 5 7 1014.3 1013.3 0.0
26/09:30am 26.3 29.1 20.4 70 3.9 E 6 9 3 5 1014.1 1013.1 0.0
26/09:00am 25.3 29.6 21.2 78 2.7 CALM 0 0 0 0 1014.0 1013.0 0.0
26/08:30am 24.3 28.3 20.6 80 2.4 CALM 0 0 0 0 1013.8 1012.8 0.0
26/08:00am 23.6 27.7 20.7 84 1.9 CALM 0 0 0 0 1013.6 1012.6 0.0
26/07:30am 23.5 27.3 20.2 82 2.2 CALM 0 0 0 0 1013.2 1012.2 0.0
26/07:00am 23.5 27.4 20.4 83 2.0 CALM 0 0 0 0 1013.0 1012.0 0.0
26/06:30am 23.2 27.1 20.3 84 1.9 CALM 0 0 0 0 1012.6 1011.6 0.0
26/06:00am 23.1 26.2 20.2 84 1.9 SSE 4 6 2 3 1012.3 1011.3 0.0
26/05:30am 22.6 25.0 20.1 86 1.6 S 7 9 4 5 1012.0 1011.0 0.0
26/05:00am 22.9 25.8 19.9 83 1.9 S 4 6 2 3 1011.9 1010.9 0.0
26/04:30am 22.9 25.4 19.9 83 1.9 SSE 6 9 3 5 1011.9 1010.9 0.0
26/04:00am 23.4 26.5 19.5 79 2.5 SSE 2 6 1 3 1011.8 1010.8 0.0
26/03:30am 23.9 26.6 19.4 76 2.9 E 4 7 2 4 1011.8 1010.8 0.0
26/03:00am 24.1 25.5 19.6 76 2.9 SSE 11 13 6 7 1012.2 1011.2 0.0
26/02:30am 24.5 25.4 19.3 73 3.4 SSE 13 17 7 9 1012.3 1011.3 0.0
26/02:00am 24.5 25.1 18.7 70 3.7 SSE 13 15 7 8 1012.5 1011.5 0.0
26/01:30am 24.8 25.3 17.5 64 4.6 SSE 11 13 6 7 1012.4 1011.4 0.0
26/01:00am 25.3 25.5 16.7 59 5.4 SSE 11 15 6 8 1012.7 1011.7 0.0
26/12:30am 25.6 26.3 15.6 54 6.1 ESE 6 6 3 3 1012.6 1011.6 0.0
26/12:00am 26.6 26.4 14.7 48 7.2 SE 9 11 5 6 1012.7 1011.7 0.0
 
Date/Time
EDT
Temp
°C
App
Temp
°C
Dew
Point
°C
Rel
Hum
%
Delta-T
°C
Wind Press
QNH
hPa
Press
MSL
hPa
Rain since
9am
mm
Dir  Spd
km/h
Gust
km/h
Spd
kts
Gust
kts
25/11:30pm 26.9 26.3 13.6 44 7.9 SSE 9 11 5 6 1012.9 1011.9 0.0
25/11:00pm 28.7 26.8 13.0 38 9.3 SSE 15 19 8 10 1012.7 1011.7 0.0
25/10:30pm 27.5 26.0 13.1 41 8.5 S 13 15 7 8 1012.5 1011.5 0.0
25/10:00pm 27.8 27.3 13.7 42 8.5 S 9 9 5 5 1012.2 1011.2 0.0
25/09:30pm 28.7 28.4 13.4 39 9.2 S 7 9 4 5 1011.8 1010.8 0.0
25/09:00pm 29.4 28.8 13.6 38 9.5 SSW 9 9 5 5 1011.3 1010.3 0.0
25/08:30pm 31.1 29.7 13.4 34 10.7 SSW 13 17 7 9 1010.8 1009.8 0.0
25/08:00pm 32.1 30.7 13.3 31 11.4 SSW 13 17 7 9 1010.4 1009.3 0.0
25/07:30pm 33.8 32.5 13.8 30 12.3 SSW 13 17 7 9 1010.0 1008.9 0.0
25/07:00pm 35.1 33.5 13.9 28 13.1 SSW 15 22 8 12 1009.6 1008.6 0.0
25/06:30pm 36.2 33.5 13.0 24 14.2 WSW 19 26 10 14 1009.4 1008.4 0.0
25/06:00pm 36.7 34.4 14.1 26 14.1 SSW 19 33 10 18 1009.3 1008.3 0.0
25/05:30pm 36.0 33.7 14.1 27 13.6 WSW 19 32 10 17 1009.2 1008.2 0.0
25/05:00pm 37.4 35.3 14.7 26 14.3 SW 19 33 10 18 1009.1 1008.1 0.0
25/04:30pm 36.5 34.3 14.5 27 13.8 WNW 19 28 10 15 1009.4 1008.4 0.0
25/04:00pm 36.1 34.6 16.3 31 12.7 WNW 19 28 10 15 1009.6 1008.6 0.0
25/03:30pm 36.8 35.5 16.9 31 12.9 W 19 30 10 16 1010.0 1008.9 0.0
25/03:00pm 35.5 34.0 17.7 35 11.6 WNW 22 37 12 20 1010.6 1009.5 0.0
25/02:30pm 34.5 33.6 17.7 37 10.9 WNW 19 30 10 16 1011.2 1010.2 0.0
25/02:00pm 33.7 31.5 17.8 38 10.3 NNW 26 37 14 20 1011.7 1010.7 0.0
25/01:30pm 33.0 32.0 18.0 41 9.8 NNW 20 33 11 18 1012.3 1011.3 0.0
25/01:00pm 32.9 31.2 19.0 43 9.2 NNW 26 35 14 19 1013.0 1012.0 0.0
25/12:30pm 32.2 31.2 18.8 45 8.8 NNW 22 32 12 17 1013.3 1012.3 0.0
25/12:00pm 30.8 30.0 18.5 47 8.0 NNW 20 28 11 15 1013.7 1012.7 0.0
25/11:30am 30.2 29.1 18.6 49 7.5 NNW 22 30 12 16 1014.0 1013.0 0.0
25/11:00am 29.4 28.8 18.5 52 7.1 N 19 28 10 15 1014.2 1013.2 0.0
25/10:30am 28.1 27.9 18.5 56 6.2 N 17 26 9 14 1014.4 1013.4 0.0
25/10:00am 26.6 25.9 18.2 60 5.4 NNE 19 30 10 16 1014.2 1013.2 0.0
25/09:30am 24.9 23.9 17.9 65 4.4 NE 20 28 11 15 1014.0 1013.0 0.0

Other Formats:

Comma delimited format used in spreadsheet applications
http://www.bom.gov.au/fwo/IDN60801/IDN60801.94710.axf

JavaScript Object Notation format (JSON) in row-major order
http://www.bom.gov.au/fwo/IDN60801/IDN60801.94710.json